createdAt,value
2019-05-26T00:00:51.046Z,11.50
2019-05-26T00:03:24.013Z,11.50
2019-05-26T00:05:57.455Z,11.40
2019-05-26T00:08:30.349Z,11.40
2019-05-26T00:11:03.691Z,11.30
2019-05-26T00:13:37.809Z,11.30
2019-05-26T00:16:10.689Z,11.30
2019-05-26T00:18:43.914Z,11.20
2019-05-26T00:21:16.858Z,11.20
2019-05-26T00:23:49.894Z,11.30
2019-05-26T00:26:22.961Z,11.30
2019-05-26T00:28:55.976Z,11.40
2019-05-26T00:31:28.567Z,11.50
2019-05-26T00:34:01.508Z,11.50
2019-05-26T00:36:34.741Z,11.60
2019-05-26T00:39:09.542Z,11.70
2019-05-26T00:41:42.511Z,11.80
2019-05-26T00:44:15.559Z,11.80
2019-05-26T00:46:48.568Z,11.80
2019-05-26T00:49:21.489Z,11.80
2019-05-26T00:51:54.631Z,11.80
2019-05-26T00:54:27.687Z,11.80
2019-05-26T00:57:01.113Z,11.80
2019-05-26T00:59:33.996Z,11.70
2019-05-26T01:02:06.911Z,11.60
2019-05-26T01:04:39.879Z,11.60
2019-05-26T01:07:15.084Z,11.50
2019-05-26T01:09:48.259Z,11.50
2019-05-26T01:12:21.441Z,11.40
2019-05-26T01:14:56.439Z,11.40
2019-05-26T01:17:29.532Z,11.40
2019-05-26T01:20:02.498Z,11.40
2019-05-26T01:22:35.526Z,11.30
2019-05-26T01:25:09.503Z,11.30
2019-05-26T01:27:42.265Z,11.20
2019-05-26T01:30:15.640Z,11.10
2019-05-26T01:32:49.546Z,11.10
2019-05-26T01:35:22.257Z,11.00
2019-05-26T01:37:55.235Z,10.90
2019-05-26T01:40:42.610Z,10.90
2019-05-26T01:43:15.357Z,10.80
2019-05-26T01:45:48.518Z,10.70
2019-05-26T01:48:21.664Z,10.70
2019-05-26T01:50:54.927Z,10.70
2019-05-26T01:53:27.916Z,10.60
2019-05-26T01:56:01.043Z,10.60
2019-05-26T01:58:33.999Z,10.50
2019-05-26T02:01:07.016Z,10.50
2019-05-26T02:03:41.264Z,10.40
2019-05-26T02:06:13.949Z,10.30
2019-05-26T02:08:46.976Z,10.30
2019-05-26T02:11:19.928Z,10.20
2019-05-26T02:13:52.858Z,10.20
2019-05-26T02:16:25.658Z,10.10
2019-05-26T02:18:58.814Z,10.10
2019-05-26T02:21:32.006Z,10.00
2019-05-26T02:24:04.988Z,10.00
2019-05-26T02:26:37.886Z,10.00
2019-05-26T02:29:10.846Z,10.10
2019-05-26T02:31:43.813Z,10.00
2019-05-26T02:34:16.757Z,10.00
2019-05-26T02:36:49.587Z,9.90
2019-05-26T02:39:22.511Z,9.90
2019-05-26T02:41:55.428Z,9.80
2019-05-26T02:44:28.615Z,9.80
2019-05-26T02:47:01.435Z,9.80
2019-05-26T02:49:34.446Z,9.70
2019-05-26T02:52:07.334Z,9.60
2019-05-26T02:54:40.124Z,9.50
2019-05-26T02:57:12.903Z,9.40
2019-05-26T02:59:45.720Z,9.40
2019-05-26T03:02:18.555Z,9.30
2019-05-26T03:04:51.522Z,9.30
2019-05-26T03:07:29.293Z,9.40
2019-05-26T03:10:07.040Z,9.40
2019-05-26T03:12:44.031Z,9.30
2019-05-26T03:15:20.994Z,9.30
2019-05-26T03:18:00.436Z,9.30
2019-05-26T03:20:42.342Z,9.30
2019-05-26T03:23:19.467Z,9.40
2019-05-26T03:25:55.766Z,9.40
2019-05-26T03:28:34.381Z,9.40
2019-05-26T03:31:11.274Z,9.40
2019-05-26T03:33:47.850Z,9.50
2019-05-26T03:36:24.213Z,9.50
2019-05-26T03:39:00.576Z,9.50
2019-05-26T03:41:36.994Z,9.60
2019-05-26T03:44:14.888Z,9.70
2019-05-26T03:46:52.544Z,9.80
2019-05-26T03:49:33.441Z,9.90
2019-05-26T03:52:07.640Z,10.10
2019-05-26T03:54:45.381Z,10.20
2019-05-26T03:57:22.291Z,10.30
2019-05-26T03:59:56.200Z,10.40
2019-05-26T04:02:34.190Z,10.60
2019-05-26T04:05:10.770Z,10.70
2019-05-26T04:07:50.588Z,10.90
2019-05-26T04:10:29.161Z,11.00
2019-05-26T04:13:16.200Z,11.20
2019-05-26T04:15:55.326Z,11.30
2019-05-26T04:18:33.062Z,11.40
2019-05-26T04:21:07.483Z,11.60
2019-05-26T04:23:45.132Z,11.80
2019-05-26T04:26:23.193Z,11.90
2019-05-26T04:29:06.384Z,12.10
2019-05-26T04:31:45.101Z,12.30
2019-05-26T04:34:25.968Z,12.50
2019-05-26T04:37:04.721Z,12.70
2019-05-26T04:39:42.687Z,12.90
2019-05-26T04:42:20.539Z,13.00
2019-05-26T04:45:00.639Z,13.20
2019-05-26T04:47:35.464Z,13.30
2019-05-26T04:50:13.947Z,13.40
2019-05-26T04:53:10.285Z,13.50
2019-05-26T04:55:47.253Z,13.50
2019-05-26T04:58:22.473Z,13.60
2019-05-26T05:00:59.411Z,13.60
2019-05-26T05:03:39.301Z,13.60
2019-05-26T05:06:16.577Z,13.70
2019-05-26T05:08:55.623Z,13.70
2019-05-26T05:11:30.130Z,13.80
2019-05-26T05:14:25.633Z,13.80
2019-05-26T05:17:14.069Z,14.00
2019-05-26T05:19:47.072Z,14.10
2019-05-26T05:22:25.100Z,14.30
2019-05-26T05:25:01.593Z,14.50
2019-05-26T05:27:38.803Z,14.60
2019-05-26T05:30:16.906Z,14.80
2019-05-26T05:32:55.353Z,14.90
2019-05-26T05:35:31.730Z,15.10
2019-05-26T05:38:10.008Z,15.20
2019-05-26T05:40:58.887Z,15.40
2019-05-26T05:43:26.083Z,15.50
2019-05-26T05:46:07.429Z,15.70
2019-05-26T05:48:45.824Z,15.90
2019-05-26T05:51:22.742Z,16.00
2019-05-26T05:54:00.714Z,16.00
2019-05-26T05:56:38.133Z,16.20
2019-05-26T05:59:14.291Z,16.50
2019-05-26T06:01:53.473Z,16.70
2019-05-26T06:04:31.761Z,16.70
2019-05-26T06:07:09.850Z,16.80
2019-05-26T06:09:48.143Z,16.90
2019-05-26T06:12:21.501Z,17.10
2019-05-26T06:14:56.943Z,17.10
2019-05-26T06:17:39.395Z,17.10
2019-05-26T06:20:13.748Z,17.10
2019-05-26T06:22:46.884Z,17.20
2019-05-26T06:25:20.474Z,17.20
2019-05-26T06:27:53.600Z,17.20
2019-05-26T06:30:26.978Z,17.40
2019-05-26T06:33:02.500Z,17.50
2019-05-26T06:35:35.604Z,17.60
2019-05-26T06:38:08.596Z,17.90
2019-05-26T06:40:41.321Z,18.00
2019-05-26T06:43:17.075Z,18.20
2019-05-26T06:45:52.606Z,18.30
2019-05-26T06:48:26.875Z,18.50
2019-05-26T06:51:00.220Z,18.60
2019-05-26T06:53:36.578Z,18.60
2019-05-26T06:56:09.141Z,18.70
2019-05-26T06:58:45.360Z,18.80
2019-05-26T07:01:19.172Z,19.00
2019-05-26T07:03:52.595Z,19.20
2019-05-26T07:06:25.886Z,19.40
2019-05-26T07:09:01.961Z,19.50
2019-05-26T07:11:50.113Z,19.60
2019-05-26T07:14:09.348Z,19.60
2019-05-26T07:16:41.647Z,19.60
2019-05-26T07:19:14.152Z,19.60
2019-05-26T07:21:46.349Z,19.70
2019-05-26T07:24:18.446Z,19.80
2019-05-26T07:26:50.764Z,20.00
2019-05-26T07:29:23.243Z,20.20
2019-05-26T07:31:55.224Z,20.50
2019-05-26T07:34:27.347Z,20.60
2019-05-26T07:36:59.631Z,20.50
2019-05-26T07:39:31.952Z,20.70
2019-05-26T07:42:10.718Z,20.70
2019-05-26T07:44:38.270Z,20.80
2019-05-26T07:47:10.618Z,20.90
2019-05-26T07:49:42.987Z,20.90
2019-05-26T07:52:15.385Z,20.90
2019-05-26T07:54:47.555Z,21.10
2019-05-26T07:57:19.888Z,21.20
2019-05-26T07:59:52.288Z,21.30
2019-05-26T08:02:24.471Z,21.40
2019-05-26T08:04:57.014Z,21.60
2019-05-26T08:07:29.222Z,21.60
2019-05-26T08:10:01.575Z,21.60
2019-05-26T08:12:33.761Z,21.60
2019-05-26T08:15:07.041Z,21.70
2019-05-26T08:17:39.263Z,21.90
2019-05-26T08:20:14.715Z,22.00
2019-05-26T08:22:47.040Z,22.20
2019-05-26T08:25:19.508Z,22.30
2019-05-26T08:27:51.717Z,22.20
2019-05-26T08:30:24.373Z,22.30
2019-05-26T08:32:56.569Z,22.30
2019-05-26T08:35:28.689Z,22.30
2019-05-26T08:38:00.848Z,22.50
2019-05-26T08:40:32.897Z,22.70
2019-05-26T08:43:05.295Z,22.90
2019-05-26T08:45:37.655Z,22.80
2019-05-26T08:48:09.734Z,22.80
2019-05-26T08:50:41.958Z,23.00
2019-05-26T08:53:14.116Z,23.20
2019-05-26T08:55:46.494Z,23.40
2019-05-26T08:58:18.671Z,23.50
2019-05-26T09:00:51.080Z,23.60
2019-05-26T09:03:23.231Z,23.80
2019-05-26T09:05:55.424Z,24.10
2019-05-26T09:08:27.626Z,24.20
2019-05-26T09:11:00.056Z,24.40
2019-05-26T09:13:32.433Z,24.50
2019-05-26T09:16:06.136Z,24.60
2019-05-26T09:18:38.364Z,24.50
2019-05-26T09:21:10.551Z,24.50
2019-05-26T09:23:42.646Z,24.50
2019-05-26T09:26:15.108Z,24.60
2019-05-26T09:28:47.234Z,24.60
2019-05-26T09:31:19.534Z,24.60
2019-05-26T09:33:52.018Z,24.70
2019-05-26T09:36:25.236Z,24.70
2019-05-26T09:38:57.732Z,24.70
2019-05-26T09:41:34.517Z,24.60
2019-05-26T09:44:07.319Z,24.30
2019-05-26T09:46:39.580Z,24.30
2019-05-26T09:49:11.819Z,24.40
2019-05-26T09:51:44.016Z,24.60
2019-05-26T09:54:16.195Z,24.70
2019-05-26T09:56:48.569Z,24.90
2019-05-26T09:59:21.939Z,25.10
2019-05-26T10:01:54.294Z,25.40
2019-05-26T10:04:26.458Z,25.50
2019-05-26T10:06:58.693Z,25.70
2019-05-26T10:09:31.023Z,25.70
2019-05-26T10:12:03.473Z,25.80
2019-05-26T10:14:35.708Z,25.80
2019-05-26T10:17:08.318Z,25.80
2019-05-26T10:19:40.783Z,25.90
2019-05-26T10:22:13.104Z,26.00
2019-05-26T10:24:45.394Z,26.10
2019-05-26T10:27:17.707Z,26.20
2019-05-26T10:29:50.007Z,26.20
2019-05-26T10:32:22.203Z,26.30
2019-05-26T10:34:54.497Z,26.20
2019-05-26T10:37:26.970Z,26.30
2019-05-26T10:39:59.263Z,26.30
2019-05-26T10:42:31.561Z,26.30
2019-05-26T10:45:03.889Z,26.30
2019-05-26T10:47:36.313Z,26.40
2019-05-26T10:50:09.210Z,26.20
2019-05-26T10:52:41.883Z,26.20
2019-05-26T10:55:16.049Z,26.10
2019-05-26T10:57:51.530Z,26.10
2019-05-26T11:00:24.449Z,26.20
2019-05-26T11:02:57.159Z,26.30
2019-05-26T11:05:29.712Z,26.50
2019-05-26T11:08:02.245Z,26.70
2019-05-26T11:10:34.901Z,27.00
2019-05-26T11:13:07.804Z,27.10
2019-05-26T11:15:40.433Z,27.20
2019-05-26T11:18:12.833Z,27.20
2019-05-26T11:20:45.539Z,27.20
2019-05-26T11:23:18.083Z,27.20
2019-05-26T11:25:53.600Z,27.30
2019-05-26T11:28:25.888Z,27.40
2019-05-26T11:30:58.416Z,27.40
2019-05-26T11:33:31.058Z,27.40
2019-05-26T11:36:03.583Z,27.20
2019-05-26T11:38:36.304Z,26.80
2019-05-26T11:41:08.622Z,26.60
2019-05-26T11:43:41.013Z,26.60
2019-05-26T11:46:16.412Z,26.60
2019-05-26T11:48:47.252Z,26.60
2019-05-26T11:51:19.957Z,26.60
2019-05-26T11:53:52.860Z,26.30
2019-05-26T11:56:25.480Z,26.10
2019-05-26T11:58:58.072Z,26.00
2019-05-26T12:01:30.702Z,26.20
2019-05-26T12:04:03.591Z,26.40
2019-05-26T12:06:40.779Z,26.70
2019-05-26T12:09:13.638Z,27.00
2019-05-26T12:11:45.995Z,27.20
2019-05-26T12:14:33.732Z,27.20
2019-05-26T12:16:52.730Z,27.10
2019-05-26T12:19:25.299Z,27.10
2019-05-26T12:21:57.546Z,26.90
2019-05-26T12:24:29.939Z,26.80
2019-05-26T12:27:02.567Z,26.80
2019-05-26T12:29:34.888Z,27.00
2019-05-26T12:32:07.825Z,27.10
2019-05-26T12:34:40.408Z,27.10
2019-05-26T12:37:13.032Z,27.10
2019-05-26T12:39:45.762Z,27.00
2019-05-26T12:42:18.159Z,26.80
2019-05-26T12:44:50.847Z,26.70
2019-05-26T12:47:23.413Z,26.50
2019-05-26T12:49:55.772Z,26.40
2019-05-26T12:52:28.174Z,26.40
2019-05-26T12:55:00.573Z,26.30
2019-05-26T12:57:32.789Z,26.20
2019-05-26T13:00:05.669Z,26.30
2019-05-26T13:02:38.236Z,26.30
2019-05-26T13:05:11.637Z,26.40
2019-05-26T13:07:44.306Z,26.40
2019-05-26T13:10:18.255Z,26.40
2019-05-26T13:12:50.609Z,26.20
2019-05-26T13:15:24.480Z,26.10
2019-05-26T13:17:56.885Z,26.00
2019-05-26T13:20:29.749Z,26.00
2019-05-26T13:23:02.185Z,26.00
2019-05-26T13:25:34.822Z,26.10
2019-05-26T13:28:07.557Z,26.10
2019-05-26T13:30:41.322Z,26.10
2019-05-26T13:33:13.640Z,26.10
2019-05-26T13:35:46.297Z,26.10
2019-05-26T13:38:18.861Z,26.30
2019-05-26T13:40:51.592Z,26.40
2019-05-26T13:43:24.152Z,26.70
2019-05-26T13:45:57.586Z,26.80
2019-05-26T13:48:29.914Z,26.90
2019-05-26T13:51:02.343Z,26.80
2019-05-26T13:53:34.968Z,26.70
2019-05-26T13:56:07.518Z,26.70
2019-05-26T13:58:40.312Z,26.70
2019-05-26T14:01:12.899Z,26.80
2019-05-26T14:03:45.610Z,27.00
2019-05-26T14:06:17.958Z,26.90
2019-05-26T14:08:50.700Z,26.90
2019-05-26T14:11:23.283Z,26.90
2019-05-26T14:13:56.206Z,26.80
2019-05-26T14:16:31.968Z,26.60
2019-05-26T14:19:06.274Z,26.40
2019-05-26T14:21:38.478Z,26.30
2019-05-26T14:24:12.972Z,26.30
2019-05-26T14:26:45.620Z,26.40
2019-05-26T14:29:19.442Z,26.50
2019-05-26T14:31:52.897Z,26.60
2019-05-26T14:34:25.583Z,26.70
2019-05-26T14:36:57.913Z,26.80
2019-05-26T14:39:30.230Z,26.70
2019-05-26T14:42:02.918Z,26.70
2019-05-26T14:44:35.308Z,26.70
2019-05-26T14:47:07.936Z,26.60
2019-05-26T14:49:40.570Z,26.60
2019-05-26T14:52:12.800Z,26.40
2019-05-26T14:54:45.345Z,26.30
2019-05-26T14:57:17.740Z,26.40
2019-05-26T14:59:50.322Z,26.40
2019-05-26T15:02:22.661Z,26.50
2019-05-26T15:04:54.996Z,26.40
2019-05-26T15:07:27.308Z,26.40
2019-05-26T15:09:59.560Z,26.40
2019-05-26T15:12:32.001Z,26.40
2019-05-26T15:15:04.424Z,26.40
2019-05-26T15:17:37.058Z,26.30
2019-05-26T15:20:12.224Z,26.30
2019-05-26T15:22:44.604Z,26.20
2019-05-26T15:25:17.369Z,26.00
2019-05-26T15:27:50.220Z,25.90
2019-05-26T15:30:23.056Z,25.70
2019-05-26T15:32:55.470Z,25.60
2019-05-26T15:35:27.977Z,25.60
2019-05-26T15:38:00.389Z,25.50
2019-05-26T15:40:32.638Z,25.50
2019-05-26T15:43:05.065Z,25.40
2019-05-26T15:45:37.606Z,25.50
2019-05-26T15:48:10.119Z,25.50
2019-05-26T15:50:42.537Z,25.50
2019-05-26T15:53:15.116Z,25.40
2019-05-26T15:55:47.648Z,25.40
2019-05-26T15:58:20.169Z,25.40
2019-05-26T16:00:53.907Z,25.50
2019-05-26T16:03:26.446Z,25.60
2019-05-26T16:05:58.771Z,25.50
2019-05-26T16:08:31.042Z,25.30
2019-05-26T16:11:03.307Z,25.00
2019-05-26T16:13:36.068Z,24.70
2019-05-26T16:16:08.318Z,24.40
2019-05-26T16:18:40.813Z,24.20
2019-05-26T16:21:27.078Z,24.00
2019-05-26T16:23:47.003Z,23.90
2019-05-26T16:26:19.337Z,23.80
2019-05-26T16:28:51.888Z,23.70
2019-05-26T16:31:24.471Z,23.60
2019-05-26T16:33:56.890Z,23.60
2019-05-26T16:36:29.249Z,23.70
2019-05-26T16:39:01.616Z,23.80
2019-05-26T16:41:33.987Z,23.90
2019-05-26T16:44:06.684Z,24.00
2019-05-26T16:46:39.081Z,24.00
2019-05-26T16:49:11.445Z,24.00
2019-05-26T16:51:43.784Z,23.90
2019-05-26T16:54:16.320Z,23.80
2019-05-26T16:56:48.931Z,23.60
2019-05-26T16:59:21.577Z,23.50
2019-05-26T17:01:55.392Z,23.40
2019-05-26T17:04:32.470Z,23.20
2019-05-26T17:07:04.878Z,23.10
2019-05-26T17:09:37.225Z,23.00
2019-05-26T17:12:09.639Z,22.80
2019-05-26T17:14:43.560Z,22.70
2019-05-26T17:17:15.891Z,22.50
2019-05-26T17:19:48.437Z,22.50
2019-05-26T17:22:20.877Z,22.30
2019-05-26T17:24:53.146Z,22.30
2019-05-26T17:27:25.449Z,22.20
2019-05-26T17:29:59.407Z,22.10
2019-05-26T17:32:33.546Z,22.00
2019-05-26T17:35:08.408Z,22.00
2019-05-26T17:37:40.459Z,21.90
2019-05-26T17:40:12.674Z,21.80
2019-05-26T17:42:45.119Z,21.70
2019-05-26T17:45:17.838Z,21.60
2019-05-26T17:47:50.009Z,21.50
2019-05-26T17:50:22.990Z,21.40
2019-05-26T17:52:55.464Z,21.30
2019-05-26T17:55:27.789Z,21.20
2019-05-26T17:57:59.917Z,21.10
2019-05-26T18:00:32.553Z,21.00
2019-05-26T18:03:04.949Z,20.90
2019-05-26T18:05:37.505Z,20.80
2019-05-26T18:08:09.878Z,20.70
2019-05-26T18:10:42.536Z,20.60
2019-05-26T18:13:15.151Z,20.40
2019-05-26T18:15:47.889Z,20.30
2019-05-26T18:18:20.365Z,20.10
2019-05-26T18:20:53.208Z,20.10
2019-05-26T18:23:25.977Z,19.90
2019-05-26T18:25:58.974Z,19.80
2019-05-26T18:28:31.534Z,19.70
2019-05-26T18:31:03.832Z,19.60
2019-05-26T18:33:36.560Z,19.40
2019-05-26T18:36:09.378Z,19.30
2019-05-26T18:38:42.527Z,19.30
2019-05-26T18:41:15.849Z,19.20
2019-05-26T18:43:49.118Z,19.20
2019-05-26T18:46:22.059Z,19.10
2019-05-26T18:48:55.174Z,19.10
2019-05-26T18:51:28.631Z,19.10
2019-05-26T18:54:04.434Z,19.20
2019-05-26T18:56:37.699Z,19.20
2019-05-26T18:59:11.054Z,19.30
2019-05-26T19:01:44.197Z,19.40
2019-05-26T19:04:17.511Z,19.40
2019-05-26T19:06:50.636Z,19.40
2019-05-26T19:09:23.307Z,19.50
2019-05-26T19:11:58.156Z,19.40
2019-05-26T19:14:32.907Z,19.40
2019-05-26T19:17:05.751Z,19.40
2019-05-26T19:19:38.447Z,19.50
2019-05-26T19:22:10.970Z,19.50
2019-05-26T19:24:43.823Z,19.50
2019-05-26T19:27:16.796Z,19.60
2019-05-26T19:29:49.232Z,19.80
2019-05-26T19:32:21.968Z,19.80
2019-05-26T19:34:54.808Z,19.90
2019-05-26T19:37:28.256Z,20.00
2019-05-26T19:40:01.794Z,20.00
2019-05-26T19:42:35.225Z,20.00
2019-05-26T19:45:08.860Z,20.00
2019-05-26T19:47:45.259Z,19.90
2019-05-26T19:50:25.488Z,19.90
2019-05-26T19:52:58.978Z,19.90
2019-05-26T19:55:36.166Z,19.90
2019-05-26T19:58:11.987Z,19.80
2019-05-26T20:00:45.080Z,19.70
2019-05-26T20:03:18.551Z,19.60
2019-05-26T20:05:56.052Z,19.40
2019-05-26T20:08:29.546Z,19.30
2019-05-26T20:11:05.476Z,19.20
2019-05-26T20:13:43.037Z,19.20
2019-05-26T20:16:17.709Z,19.10
2019-05-26T20:18:51.082Z,19.00
2019-05-26T20:21:23.940Z,18.90
2019-05-26T20:23:56.682Z,18.90
2019-05-26T20:26:29.658Z,18.80
2019-05-26T20:29:02.659Z,18.80
2019-05-26T20:31:35.628Z,18.70
2019-05-26T20:34:09.920Z,18.60
2019-05-26T20:36:42.930Z,18.60
2019-05-26T20:39:15.660Z,18.60
2019-05-26T20:41:48.532Z,18.50
2019-05-26T20:44:21.299Z,18.50
2019-05-26T20:46:54.182Z,18.40
2019-05-26T20:49:44.133Z,18.40
2019-05-26T20:52:01.590Z,18.40
2019-05-26T20:54:34.168Z,18.30
2019-05-26T21:00:26.874Z,18.20
2019-05-26T21:03:00.288Z,18.20
2019-05-26T21:05:33.481Z,18.20
2019-05-26T21:08:05.984Z,18.10
2019-05-26T21:10:38.583Z,18.10
2019-05-26T21:13:11.266Z,18.10
2019-05-26T21:15:44.022Z,18.00
2019-05-26T21:18:16.628Z,18.00
2019-05-26T21:20:49.113Z,18.00
2019-05-26T21:23:22.772Z,18.00
2019-05-26T21:25:55.864Z,18.00
2019-05-26T21:28:28.421Z,18.00
2019-05-26T21:31:01.025Z,18.00
2019-05-26T21:33:33.681Z,18.00
2019-05-26T21:36:06.567Z,18.00
2019-05-26T21:38:39.315Z,18.00
2019-05-26T21:41:11.954Z,17.90
2019-05-26T21:43:44.287Z,17.90
2019-05-26T21:46:17.322Z,17.90
2019-05-26T21:48:49.667Z,17.90
2019-05-26T21:51:22.427Z,17.70
2019-05-26T21:53:55.166Z,17.60
2019-05-26T21:56:27.935Z,17.60
2019-05-26T21:59:00.210Z,17.60
2019-05-26T22:01:33.185Z,17.60
2019-05-26T22:04:06.571Z,17.60
2019-05-26T22:06:39.449Z,17.60
2019-05-26T22:09:12.091Z,17.50
2019-05-26T22:11:44.901Z,17.50
2019-05-26T22:14:17.608Z,17.50
2019-05-26T22:16:50.418Z,17.50
2019-05-26T22:19:22.851Z,17.50
2019-05-26T22:21:55.333Z,17.50
2019-05-26T22:24:27.942Z,17.50
2019-05-26T22:27:00.648Z,17.50
2019-05-26T22:29:32.995Z,17.50
2019-05-26T22:32:05.379Z,17.40
2019-05-26T22:34:37.834Z,17.40
2019-05-26T22:37:10.334Z,17.40
2019-05-26T22:39:42.824Z,17.40
2019-05-26T22:42:15.490Z,17.30
2019-05-26T22:44:47.983Z,17.30
2019-05-26T22:47:20.521Z,17.20
2019-05-26T22:49:53.008Z,17.20
2019-05-26T22:52:25.607Z,17.10
2019-05-26T22:54:57.980Z,17.00
2019-05-26T22:57:30.535Z,16.90
2019-05-26T23:00:03.392Z,16.80
2019-05-26T23:02:36.013Z,16.80
2019-05-26T23:05:09.335Z,16.70
2019-05-26T23:07:41.637Z,16.60
2019-05-26T23:10:14.369Z,16.60
2019-05-26T23:12:46.959Z,16.50
2019-05-26T23:15:19.777Z,16.40
2019-05-26T23:17:52.391Z,16.30
2019-05-26T23:20:24.892Z,16.30
2019-05-26T23:22:57.629Z,16.20
2019-05-26T23:25:30.257Z,16.10
2019-05-26T23:28:02.887Z,16.00
2019-05-26T23:30:35.306Z,16.00
2019-05-26T23:33:07.787Z,16.00
2019-05-26T23:35:40.339Z,15.90
2019-05-26T23:38:12.776Z,15.80
2019-05-26T23:40:45.252Z,15.70
2019-05-26T23:43:17.689Z,15.70
2019-05-26T23:45:50.035Z,15.60
2019-05-26T23:48:22.339Z,15.50
2019-05-26T23:50:54.603Z,15.50
2019-05-26T23:53:27.106Z,15.50
2019-05-26T23:55:59.659Z,15.50
2019-05-26T23:58:32.301Z,15.40
